createdAt,value
2018-11-02T00:00:11.032Z,97773.00
2018-11-02T00:04:13.357Z,97778.00
2018-11-02T00:08:15.683Z,97794.00
2018-11-02T00:12:18.094Z,97802.00
2018-11-02T00:16:20.988Z,97816.00
2018-11-02T00:20:23.331Z,97820.00
2018-11-02T00:24:26.052Z,97812.00
2018-11-02T00:28:28.407Z,97818.00
2018-11-02T00:32:30.693Z,97816.00
2018-11-02T00:36:33.015Z,97818.00
2018-11-02T00:40:35.442Z,97816.00
2018-11-02T00:44:37.787Z,97818.00
2018-11-02T00:48:40.151Z,97827.00
2018-11-02T00:52:42.599Z,97825.00
2018-11-02T00:56:45.018Z,97837.00
2018-11-02T01:00:55.732Z,97844.00
2018-11-02T01:04:58.424Z,97835.00
2018-11-02T01:09:00.827Z,97850.00
2018-11-02T01:13:03.287Z,97862.00
2018-11-02T01:17:05.773Z,97857.00
2018-11-02T01:21:08.099Z,97844.00
2018-11-02T01:25:10.507Z,97852.00
2018-11-02T01:29:12.888Z,97849.00
2018-11-02T01:33:15.158Z,97860.00
2018-11-02T01:37:17.493Z,97864.00
2018-11-02T01:41:19.823Z,97865.00
2018-11-02T01:45:22.175Z,97867.00
2018-11-02T01:49:24.522Z,97873.00
2018-11-02T01:53:27.308Z,97868.00
2018-11-02T01:57:29.649Z,97868.00
2018-11-02T02:01:39.578Z,97864.00
2018-11-02T02:05:42.276Z,97868.00
2018-11-02T02:09:44.588Z,97879.00
2018-11-02T02:13:46.997Z,97881.00
2018-11-02T02:17:49.398Z,97882.00
2018-11-02T02:21:51.947Z,97886.00
2018-11-02T02:25:54.362Z,97874.00
2018-11-02T02:29:56.688Z,97874.00
2018-11-02T02:33:59.092Z,97872.00
2018-11-02T02:38:01.412Z,97876.00
2018-11-02T02:42:03.993Z,97880.00
2018-11-02T02:46:06.404Z,97884.00
2018-11-02T02:50:10.978Z,97880.00
2018-11-02T02:54:13.276Z,97881.00
2018-11-02T02:58:15.627Z,97872.00
2018-11-02T03:02:17.968Z,97873.00
2018-11-02T03:06:20.342Z,97865.00
2018-11-02T03:10:22.710Z,97880.00
2018-11-02T03:14:25.036Z,97885.00
2018-11-02T03:18:27.403Z,97897.00
2018-11-02T03:22:29.834Z,97901.00
2018-11-02T03:26:32.097Z,97906.00
2018-11-02T03:30:34.435Z,97916.00
2018-11-02T03:34:36.763Z,97918.00
2018-11-02T03:38:39.141Z,97915.00
2018-11-02T03:42:41.648Z,97928.00
2018-11-02T03:46:44.049Z,97932.00
2018-11-02T03:50:46.370Z,97944.00
2018-11-02T03:54:48.730Z,97946.00
2018-11-02T03:58:51.035Z,97945.00
2018-11-02T04:02:53.426Z,97963.00
2018-11-02T04:06:55.712Z,97962.00
2018-11-02T04:10:58.065Z,97977.00
2018-11-02T04:15:00.425Z,97973.00
2018-11-02T04:19:02.846Z,97976.00
2018-11-02T04:23:05.361Z,97983.00
2018-11-02T04:27:07.696Z,97979.00
2018-11-02T04:31:10.201Z,97988.00
2018-11-02T04:35:12.456Z,97996.00
2018-11-02T04:39:14.992Z,97999.00
2018-11-02T04:43:17.539Z,98021.00
2018-11-02T04:47:19.931Z,98022.00
2018-11-02T04:51:22.297Z,98024.00
2018-11-02T04:55:24.694Z,98022.00
2018-11-02T04:59:27.386Z,98031.00
2018-11-02T05:03:29.769Z,98042.00
2018-11-02T05:07:32.056Z,98038.00
2018-11-02T05:11:34.535Z,98047.00
2018-11-02T05:15:36.691Z,98064.00
2018-11-02T05:19:39.039Z,98070.00
2018-11-02T05:23:41.317Z,98071.00
2018-11-02T05:27:43.645Z,98084.00
2018-11-02T05:31:45.970Z,98079.00
2018-11-02T05:35:48.329Z,98092.00
2018-11-02T05:39:50.691Z,98107.00
2018-11-02T05:43:53.060Z,98096.00
2018-11-02T05:47:55.407Z,98112.00
2018-11-02T05:51:57.856Z,98112.00
2018-11-02T05:56:00.246Z,98116.00
2018-11-02T06:00:02.545Z,98125.00
2018-11-02T06:04:04.955Z,98121.00
2018-11-02T06:08:07.524Z,98126.00
2018-11-02T06:12:09.764Z,98130.00
2018-11-02T06:16:12.206Z,98128.00
2018-11-02T06:20:14.637Z,98139.00
2018-11-02T06:24:17.015Z,98137.00
2018-11-02T06:28:19.358Z,98137.00
2018-11-02T06:32:21.680Z,98147.00
2018-11-02T06:36:24.596Z,98157.00
2018-11-02T06:40:26.928Z,98171.00
2018-11-02T06:44:29.306Z,98179.00
2018-11-02T06:48:31.610Z,98187.00
2018-11-02T06:52:34.485Z,98190.00
2018-11-02T06:56:37.514Z,98197.00
2018-11-02T07:00:40.020Z,98194.00
2018-11-02T07:04:42.323Z,98199.00
2018-11-02T07:08:44.611Z,98204.00
2018-11-02T07:12:47.010Z,98215.00
2018-11-02T07:16:49.274Z,98230.00
2018-11-02T07:20:51.598Z,98226.00
2018-11-02T07:24:54.175Z,98241.00
2018-11-02T07:28:56.960Z,98244.00
2018-11-02T07:32:59.169Z,98244.00
2018-11-02T07:37:01.411Z,98263.00
2018-11-02T07:41:03.787Z,98260.00
2018-11-02T07:45:06.604Z,98278.00
2018-11-02T07:49:08.969Z,98273.00
2018-11-02T07:53:11.250Z,98285.00
2018-11-02T07:57:13.544Z,98289.00
2018-11-02T08:01:16.230Z,98293.00
2018-11-02T08:05:18.489Z,98308.00
2018-11-02T08:09:20.784Z,98309.00
2018-11-02T08:13:23.051Z,98317.00
2018-11-02T08:17:25.297Z,98315.00
2018-11-02T08:21:27.649Z,98326.00
2018-11-02T08:25:29.989Z,98325.00
2018-11-02T08:29:32.337Z,98334.00
2018-11-02T08:33:34.655Z,98347.00
2018-11-02T08:37:36.980Z,98345.00
2018-11-02T08:41:39.240Z,98340.00
2018-11-02T08:45:41.597Z,98339.00
2018-11-02T08:49:43.873Z,98348.00
2018-11-02T08:53:46.279Z,98346.00
2018-11-02T08:57:48.656Z,98351.00
2018-11-02T09:01:50.821Z,98352.00
2018-11-02T09:05:53.080Z,98367.00
2018-11-02T09:09:55.425Z,98368.00
2018-11-02T09:13:57.815Z,98368.00
2018-11-02T09:18:00.309Z,98369.00
2018-11-02T09:22:02.646Z,98374.00
2018-11-02T09:26:05.195Z,98376.00
2018-11-02T09:30:12.815Z,98378.00
2018-11-02T09:34:15.236Z,98380.00
2018-11-02T09:38:17.548Z,98392.00
2018-11-02T09:42:19.870Z,98390.00
2018-11-02T09:46:22.238Z,98396.00
2018-11-02T09:50:24.846Z,98406.00
2018-11-02T09:54:27.169Z,98406.00
2018-11-02T09:58:29.643Z,98393.00
2018-11-02T10:02:31.988Z,98413.00
2018-11-02T10:06:34.285Z,98413.00
2018-11-02T10:10:36.662Z,98409.00
2018-11-02T10:14:39.203Z,98409.00
2018-11-02T10:18:41.538Z,98415.00
2018-11-02T10:22:44.133Z,98418.00
2018-11-02T10:26:46.564Z,98412.00
2018-11-02T10:30:48.974Z,98419.00
2018-11-02T10:34:51.962Z,98421.00
2018-11-02T10:38:54.769Z,98421.00
2018-11-02T10:42:59.844Z,98423.00
2018-11-02T10:47:03.939Z,98426.00
2018-11-02T10:51:06.338Z,98412.00
2018-11-02T10:55:08.886Z,98433.00
2018-11-02T10:59:11.354Z,98437.00
2018-11-02T11:03:13.918Z,98443.00
2018-11-02T11:07:16.387Z,98444.00
2018-11-02T11:11:18.810Z,98447.00
2018-11-02T11:15:21.638Z,98449.00
2018-11-02T11:19:24.492Z,98447.00
2018-11-02T11:23:26.861Z,98436.00
2018-11-02T11:27:29.422Z,98442.00
2018-11-02T11:31:31.869Z,98445.00
2018-11-02T11:35:34.359Z,98447.00
2018-11-02T11:39:36.814Z,98440.00
2018-11-02T11:43:39.247Z,98442.00
2018-11-02T11:47:41.727Z,98437.00
2018-11-02T11:51:44.127Z,98447.00
2018-11-02T11:55:46.689Z,98450.00
2018-11-02T11:59:49.048Z,98456.00
2018-11-02T12:03:51.547Z,98445.00
2018-11-02T12:07:53.978Z,98449.00
2018-11-02T12:11:56.480Z,98447.00
2018-11-02T12:15:59.043Z,98449.00
2018-11-02T12:20:01.415Z,98461.00
2018-11-02T12:24:04.354Z,98463.00
2018-11-02T12:28:06.879Z,98462.00
2018-11-02T12:32:09.179Z,98460.00
2018-11-02T12:36:12.178Z,98469.00
2018-11-02T12:40:19.656Z,98469.00
2018-11-02T12:44:22.063Z,98480.00
2018-11-02T12:48:24.513Z,98485.00
2018-11-02T12:52:26.807Z,98482.00
2018-11-02T12:56:29.233Z,98480.00
2018-11-02T13:00:31.598Z,98477.00
2018-11-02T13:04:34.037Z,98479.00
2018-11-02T13:08:36.398Z,98478.00
2018-11-02T13:12:38.841Z,98478.00
2018-11-02T13:16:41.206Z,98484.00
2018-11-02T13:20:43.586Z,98485.00
2018-11-02T13:24:46.138Z,98498.00
2018-11-02T13:28:48.546Z,98501.00
2018-11-02T13:32:50.902Z,98498.00
2018-11-02T13:36:53.259Z,98511.00
2018-11-02T13:40:55.621Z,98510.00
2018-11-02T13:44:58.078Z,98510.00
2018-11-02T13:49:00.457Z,98526.00
2018-11-02T13:53:02.844Z,98541.00
2018-11-02T13:57:05.872Z,98546.00
2018-11-02T14:01:08.256Z,98547.00
2018-11-02T14:05:12.533Z,98542.00
2018-11-02T14:09:14.878Z,98551.00
2018-11-02T14:13:17.235Z,98564.00
2018-11-02T14:17:19.667Z,98575.00
2018-11-02T14:21:22.070Z,98573.00
2018-11-02T14:25:24.426Z,98564.00
2018-11-02T14:29:27.099Z,98568.00
2018-11-02T14:33:29.548Z,98578.00
2018-11-02T14:37:32.147Z,98583.00
2018-11-02T14:41:34.683Z,98579.00
2018-11-02T14:45:37.607Z,98580.00
2018-11-02T14:49:40.052Z,98574.00
2018-11-02T14:53:42.597Z,98555.00
2018-11-02T14:57:44.848Z,98567.00
2018-11-02T15:01:49.266Z,98579.00
2018-11-02T15:05:54.576Z,98578.00
2018-11-02T15:10:01.945Z,98558.00
2018-11-02T15:14:05.152Z,98570.00
2018-11-02T15:18:07.722Z,98569.00
2018-11-02T15:22:13.210Z,98571.00
2018-11-02T15:26:18.573Z,98585.00
2018-11-02T15:30:25.106Z,98593.00
2018-11-02T15:34:27.666Z,98592.00
2018-11-02T15:38:30.047Z,98593.00
2018-11-02T15:42:33.038Z,98593.00
2018-11-02T15:46:35.582Z,98608.00
2018-11-02T15:50:38.026Z,98626.00
2018-11-02T15:54:40.471Z,98630.00
2018-11-02T15:58:42.862Z,98637.00
2018-11-02T16:02:46.652Z,98647.00
2018-11-02T16:06:49.637Z,98656.00
2018-11-02T16:10:51.986Z,98662.00
2018-11-02T16:14:54.470Z,98669.00
2018-11-02T16:18:56.896Z,98664.00
2018-11-02T16:23:00.846Z,98686.00
2018-11-02T16:27:03.411Z,98688.00
2018-11-02T16:31:06.516Z,98686.00
2018-11-02T16:35:09.979Z,98689.00
2018-11-02T16:39:13.555Z,98693.00
2018-11-02T16:43:15.964Z,98708.00
2018-11-02T16:47:18.433Z,98720.00
2018-11-02T16:51:20.801Z,98731.00
2018-11-02T16:55:23.200Z,98736.00
2018-11-02T16:59:25.556Z,98742.00
2018-11-02T17:03:27.927Z,98753.00
2018-11-02T17:07:30.368Z,98761.00
2018-11-02T17:11:32.806Z,98771.00
2018-11-02T17:15:35.197Z,98771.00
2018-11-02T17:19:37.582Z,98800.00
2018-11-02T17:23:39.975Z,98799.00
2018-11-02T17:27:42.344Z,98808.00
2018-11-02T17:31:44.680Z,98817.00
2018-11-02T17:35:47.011Z,98815.00
2018-11-02T17:39:49.409Z,98827.00
2018-11-02T17:43:51.807Z,98836.00
2018-11-02T17:47:54.113Z,98841.00
2018-11-02T17:51:56.450Z,98828.00
2018-11-02T17:55:58.884Z,98837.00
2018-11-02T18:00:01.361Z,98858.00
2018-11-02T18:04:03.946Z,98849.00
2018-11-02T18:08:06.323Z,98854.00
2018-11-02T18:12:09.798Z,98843.00
2018-11-02T18:16:12.613Z,98853.00
2018-11-02T18:20:15.770Z,98847.00
2018-11-02T18:24:18.207Z,98861.00
2018-11-02T18:28:20.603Z,98854.00
2018-11-02T18:32:23.084Z,98856.00
2018-11-02T18:36:25.549Z,98867.00
2018-11-02T18:40:28.378Z,98866.00
2018-11-02T18:44:31.054Z,98870.00
2018-11-02T18:48:33.418Z,98878.00
2018-11-02T18:52:35.830Z,98890.00
2018-11-02T18:56:38.226Z,98886.00
2018-11-02T19:00:40.588Z,98896.00
2018-11-02T19:04:43.312Z,98906.00
2018-11-02T19:08:45.724Z,98900.00
2018-11-02T19:12:48.069Z,98892.00
2018-11-02T19:16:51.151Z,98907.00
2018-11-02T19:20:53.724Z,98900.00
2018-11-02T19:24:56.522Z,98910.00
2018-11-02T19:29:01.825Z,98918.00
2018-11-02T19:33:06.707Z,98926.00
2018-11-02T19:37:11.740Z,98926.00
2018-11-02T19:41:17.073Z,98931.00
2018-11-02T19:45:19.808Z,98939.00
2018-11-02T19:49:22.187Z,98937.00
2018-11-02T19:53:24.892Z,98940.00
2018-11-02T19:57:27.482Z,98947.00
2018-11-02T20:01:29.905Z,98957.00
2018-11-02T20:05:33.070Z,98965.00
2018-11-02T20:09:35.600Z,98965.00
2018-11-02T20:13:38.054Z,98964.00
2018-11-02T20:19:10.187Z,98969.00
2018-11-02T20:23:12.599Z,98957.00
2018-11-02T20:27:15.030Z,98959.00
2018-11-02T20:31:17.507Z,98970.00
2018-11-02T20:35:20.903Z,98970.00
2018-11-02T20:39:23.417Z,98970.00
2018-11-02T20:43:26.435Z,98974.00
2018-11-02T20:47:33.516Z,98969.00
2018-11-02T20:51:36.103Z,98979.00
2018-11-02T20:55:38.608Z,98984.00
2018-11-02T20:59:41.658Z,98994.00
2018-11-02T21:03:44.086Z,98996.00
2018-11-02T21:07:47.073Z,99000.00
2018-11-02T21:11:50.101Z,99004.00
2018-11-02T21:15:52.493Z,99006.00
2018-11-02T21:19:56.103Z,99014.00
2018-11-02T21:23:58.751Z,99007.00
2018-11-02T21:28:01.288Z,99008.00
2018-11-02T21:32:04.564Z,99005.00
2018-11-02T21:36:06.947Z,99004.00
2018-11-02T21:40:12.693Z,99015.00
2018-11-02T21:44:17.056Z,99019.00
2018-11-02T21:48:19.782Z,99028.00
2018-11-02T21:52:22.102Z,99031.00
2018-11-02T21:56:24.732Z,99026.00
2018-11-02T22:00:27.172Z,99032.00
2018-11-02T22:04:29.619Z,99023.00
2018-11-02T22:08:31.978Z,99017.00
2018-11-02T22:12:34.399Z,99008.00
2018-11-02T22:16:36.741Z,99017.00
2018-11-02T22:20:39.196Z,99009.00
2018-11-02T22:24:42.202Z,98996.00
2018-11-02T22:28:50.319Z,99005.00
2018-11-02T22:32:52.767Z,99010.00
2018-11-02T22:36:55.143Z,99009.00
2018-11-02T22:40:57.518Z,99011.00
2018-11-02T22:45:00.558Z,99007.00
2018-11-02T22:49:05.776Z,99012.00
2018-11-02T22:53:08.193Z,99020.00
2018-11-02T22:57:10.573Z,99021.00
2018-11-02T23:01:18.797Z,99023.00
2018-11-02T23:05:21.173Z,99026.00
2018-11-02T23:09:23.556Z,99028.00
2018-11-02T23:13:25.941Z,99039.00
2018-11-02T23:17:28.306Z,99034.00
2018-11-02T23:21:30.697Z,99029.00
2018-11-02T23:25:33.102Z,99032.00
2018-11-02T23:29:35.507Z,99035.00
2018-11-02T23:33:37.838Z,99037.00
2018-11-02T23:37:40.176Z,99028.00
2018-11-02T23:41:42.513Z,99028.00
2018-11-02T23:45:44.871Z,99027.00
2018-11-02T23:49:47.202Z,99020.00
2018-11-02T23:53:49.567Z,99023.00
2018-11-02T23:57:51.921Z,99018.00
